createdAt,value
2019-02-02T00:02:24.624Z,29.10
2019-02-02T00:06:32.706Z,34.97
2019-02-02T00:10:39.670Z,32.17
2019-02-02T00:14:46.724Z,31.50
2019-02-02T00:18:53.594Z,34.67
2019-02-02T00:23:00.520Z,31.33
2019-02-02T00:27:08.530Z,35.73
2019-02-02T00:31:15.329Z,31.43
2019-02-02T00:35:22.248Z,34.37
2019-02-02T00:39:29.161Z,38.70
2019-02-02T00:43:38.420Z,35.67
2019-02-02T00:47:44.647Z,30.90
2019-02-02T00:51:51.640Z,37.07
2019-02-02T00:56:02.028Z,32.70
2019-02-02T01:00:12.846Z,32.50
2019-02-02T01:04:19.792Z,33.80
2019-02-02T01:08:26.753Z,31.33
2019-02-02T01:12:33.763Z,35.30
2019-02-02T01:16:42.097Z,37.53
2019-02-02T01:20:49.173Z,33.30
2019-02-02T01:24:56.047Z,35.27
2019-02-02T01:29:02.924Z,35.67
2019-02-02T01:33:09.767Z,35.20
2019-02-02T01:37:16.547Z,36.10
2019-02-02T01:41:23.467Z,38.40
2019-02-02T01:45:30.440Z,35.07
2019-02-02T01:49:37.405Z,36.37
2019-02-02T01:53:44.312Z,35.57
2019-02-02T01:57:51.488Z,39.13
2019-02-02T02:01:58.401Z,38.23
2019-02-02T02:06:05.397Z,38.77
2019-02-02T02:10:14.016Z,37.40
2019-02-02T02:14:21.023Z,38.07
2019-02-02T02:18:29.569Z,36.53
2019-02-02T02:22:41.012Z,37.27
2019-02-02T02:26:44.951Z,38.17
2019-02-02T02:30:51.765Z,36.33
2019-02-02T02:34:58.611Z,42.10
2019-02-02T02:39:08.183Z,41.20
2019-02-02T02:43:15.075Z,42.00
2019-02-02T02:47:22.113Z,44.57
2019-02-02T02:51:28.934Z,43.27
2019-02-02T02:55:35.833Z,42.27
2019-02-02T02:59:42.789Z,44.87
2019-02-02T03:03:49.562Z,44.23
2019-02-02T03:07:56.417Z,45.70
2019-02-02T03:12:03.359Z,43.00
2019-02-02T03:16:10.212Z,45.07
2019-02-02T03:20:17.915Z,46.47
2019-02-02T03:24:24.801Z,45.07
2019-02-02T03:28:31.632Z,44.80
2019-02-02T03:32:38.579Z,46.00
2019-02-02T03:36:45.426Z,45.83
2019-02-02T03:40:52.302Z,42.17
2019-02-02T03:44:59.145Z,44.73
2019-02-02T03:49:07.035Z,47.03
2019-02-02T03:53:13.930Z,45.17
2019-02-02T03:57:20.798Z,45.33
2019-02-02T04:01:30.012Z,47.40
2019-02-02T04:05:36.301Z,45.60
2019-02-02T04:09:53.590Z,50.33
2019-02-02T04:14:07.293Z,50.93
2019-02-02T04:18:20.647Z,48.67
2019-02-02T04:22:51.024Z,49.67
2019-02-02T04:27:03.624Z,46.53
2019-02-02T04:31:12.597Z,47.70
2019-02-02T04:35:19.381Z,51.70
2019-02-02T04:39:32.238Z,47.17
2019-02-02T04:43:40.853Z,51.53
2019-02-02T04:47:48.147Z,52.17
2019-02-02T04:51:55.130Z,45.97
2019-02-02T04:56:01.968Z,47.43
2019-02-02T05:00:19.718Z,50.17
2019-02-02T05:04:26.581Z,47.00
2019-02-02T05:08:33.591Z,45.87
2019-02-02T05:12:40.560Z,48.43
2019-02-02T05:16:47.470Z,59.67
2019-02-02T05:20:54.330Z,52.57
2019-02-02T05:25:01.193Z,47.60
2019-02-02T05:29:09.142Z,48.20
2019-02-02T05:33:15.987Z,48.97
2019-02-02T05:37:22.804Z,49.57
2019-02-02T05:41:29.657Z,50.03
2019-02-02T05:45:36.624Z,46.33
2019-02-02T05:49:43.564Z,53.00
2019-02-02T05:53:50.358Z,52.87
2019-02-02T05:57:57.157Z,48.03
2019-02-02T06:02:04.081Z,53.07
2019-02-02T06:06:10.917Z,53.57
2019-02-02T06:10:18.177Z,58.53
2019-02-02T06:14:25.548Z,53.60
2019-02-02T06:18:32.407Z,59.03
2019-02-02T06:22:39.304Z,54.57
2019-02-02T06:26:46.144Z,54.37
2019-02-02T06:30:53.159Z,53.13
2019-02-02T06:35:00.195Z,57.33
2019-02-02T06:39:09.460Z,53.27
2019-02-02T06:43:16.523Z,53.17
2019-02-02T06:47:23.375Z,59.53
2019-02-02T06:51:30.256Z,54.37
2019-02-02T06:55:37.194Z,54.00
2019-02-02T06:59:44.202Z,51.13
2019-02-02T07:03:51.209Z,54.53
2019-02-02T07:07:58.200Z,55.53
2019-02-02T07:12:05.370Z,57.10
2019-02-02T07:16:12.532Z,62.07
2019-02-02T07:20:19.646Z,55.47
2019-02-02T07:24:26.704Z,57.53
2019-02-02T07:28:33.611Z,62.40
2019-02-02T07:32:40.465Z,61.63
2019-02-02T07:36:47.386Z,68.10
2019-02-02T07:40:54.414Z,65.27
2019-02-02T07:45:01.415Z,64.10
2019-02-02T07:49:08.350Z,64.03
2019-02-02T07:53:15.270Z,62.67
2019-02-02T07:57:22.262Z,59.80
2019-02-02T08:01:29.194Z,62.80
2019-02-02T08:05:36.185Z,63.73
2019-02-02T08:09:41.901Z,73.45
2019-02-02T08:13:47.439Z,65.93
2019-02-02T08:17:53.055Z,58.57
2019-02-02T08:21:58.880Z,75.20
2019-02-02T08:26:04.603Z,62.07
2019-02-02T08:30:24.337Z,57.67
2019-02-02T08:34:30.030Z,67.47
2019-02-02T08:38:35.569Z,61.77
2019-02-02T08:42:41.122Z,68.10
2019-02-02T08:46:46.828Z,68.03
2019-02-02T08:50:52.462Z,77.33
2019-02-02T08:54:58.051Z,61.83
2019-02-02T08:59:03.560Z,72.17
2019-02-02T09:03:09.126Z,62.57
2019-02-02T09:07:15.634Z,63.67
2019-02-02T09:11:21.341Z,70.20
2019-02-02T09:15:27.202Z,67.10
2019-02-02T09:19:32.897Z,71.47
2019-02-02T09:23:38.520Z,72.23
2019-02-02T09:27:44.243Z,82.60
2019-02-02T09:31:50.066Z,84.33
2019-02-02T09:35:55.566Z,72.57
2019-02-02T09:40:01.135Z,82.00
2019-02-02T09:44:07.157Z,78.97
2019-02-02T09:48:12.959Z,81.70
2019-02-02T09:52:18.513Z,76.37
2019-02-02T09:56:24.038Z,82.33
2019-02-02T10:00:31.702Z,76.90
2019-02-02T10:04:37.218Z,71.30
2019-02-02T10:08:47.289Z,78.73
2019-02-02T10:12:53.101Z,78.20
2019-02-02T10:16:58.702Z,76.33
2019-02-02T10:21:04.472Z,78.97
2019-02-02T10:25:11.391Z,70.27
2019-02-02T10:29:17.209Z,75.63
2019-02-02T10:33:22.762Z,84.80
2019-02-02T10:37:28.319Z,81.30
2019-02-02T10:41:35.241Z,82.90
2019-02-02T10:45:40.919Z,84.10
2019-02-02T10:49:46.500Z,81.70
2019-02-02T10:53:52.195Z,82.17
2019-02-02T10:57:57.820Z,83.97
2019-02-02T11:02:03.500Z,83.17
2019-02-02T11:06:09.496Z,79.03
2019-02-02T11:10:18.642Z,72.13
2019-02-02T11:14:24.896Z,62.70
2019-02-02T11:18:30.476Z,61.00
2019-02-02T11:22:36.189Z,64.03
2019-02-02T11:26:41.727Z,59.17
2019-02-02T11:30:47.436Z,65.60
2019-02-02T11:34:53.066Z,65.10
2019-02-02T11:38:59.603Z,70.77
2019-02-02T11:43:05.627Z,67.90
2019-02-02T11:47:11.165Z,70.17
2019-02-02T11:51:16.749Z,67.70
2019-02-02T11:55:22.406Z,78.03
2019-02-02T11:59:28.019Z,72.47
2019-02-02T12:03:35.135Z,73.93
2019-02-02T12:07:40.701Z,78.63
2019-02-02T12:11:46.213Z,75.43
2019-02-02T12:15:52.956Z,76.33
2019-02-02T12:19:58.684Z,77.20
2019-02-02T12:24:14.212Z,80.20
2019-02-02T12:28:11.754Z,75.13
2019-02-02T12:32:26.176Z,80.60
2019-02-02T12:36:24.632Z,86.50
2019-02-02T12:40:30.229Z,67.80
2019-02-02T12:44:35.913Z,70.83
2019-02-02T12:48:41.702Z,64.87
2019-02-02T12:52:47.493Z,55.63
2019-02-02T12:56:53.402Z,55.73
2019-02-02T13:00:59.239Z,53.10
2019-02-02T13:05:05.801Z,57.03
2019-02-02T13:09:11.617Z,53.03
2019-02-02T13:13:17.294Z,46.63
2019-02-02T13:17:22.873Z,48.93
2019-02-02T13:21:28.549Z,46.87
2019-02-02T13:25:34.310Z,45.53
2019-02-02T13:29:40.227Z,46.90
2019-02-02T13:33:45.855Z,48.43
2019-02-02T13:37:54.406Z,47.00
2019-02-02T13:42:01.254Z,49.37
2019-02-02T13:46:06.909Z,56.37
2019-02-02T13:50:15.106Z,58.63
2019-02-02T13:54:36.860Z,57.73
2019-02-02T13:58:44.549Z,61.60
2019-02-02T14:03:02.373Z,64.47
2019-02-02T14:07:00.387Z,63.20
2019-02-02T14:11:06.041Z,63.07
2019-02-02T14:15:11.935Z,58.13
2019-02-02T14:19:17.432Z,54.23
2019-02-02T14:23:23.347Z,54.30
2019-02-02T14:27:29.074Z,48.13
2019-02-02T14:31:34.646Z,38.23
2019-02-02T14:35:40.268Z,32.97
2019-02-02T14:39:49.058Z,29.97
2019-02-02T14:43:55.674Z,35.73
2019-02-02T14:48:00.692Z,36.00
2019-02-02T14:52:06.369Z,40.67
2019-02-02T14:56:12.056Z,44.90
2019-02-02T15:00:20.313Z,45.50
2019-02-02T15:04:25.865Z,41.77
2019-02-02T15:08:31.699Z,40.77
2019-02-02T15:12:37.364Z,38.33
2019-02-02T15:16:43.072Z,40.70
2019-02-02T15:20:48.755Z,44.43
2019-02-02T15:24:55.901Z,48.33
2019-02-02T15:29:01.462Z,48.70
2019-02-02T15:33:38.998Z,48.23
2019-02-02T17:19:10.804Z,49.47
2019-02-02T17:23:16.322Z,70.05
2019-02-02T17:27:22.020Z,60.63
2019-02-02T17:31:27.656Z,60.00
2019-02-02T17:35:33.672Z,60.63
2019-02-02T17:39:39.326Z,57.97
2019-02-02T17:43:47.286Z,65.20
2019-02-02T17:47:52.968Z,63.37
2019-02-02T17:51:58.525Z,64.60
2019-02-02T17:56:04.274Z,68.17
2019-02-02T18:00:13.943Z,66.17
2019-02-02T18:04:19.503Z,65.10
2019-02-02T18:08:25.507Z,62.30
2019-02-02T18:12:31.345Z,68.97
2019-02-02T18:16:36.987Z,61.67
2019-02-02T18:20:42.540Z,61.83
2019-02-02T18:24:48.191Z,66.07
2019-02-02T18:28:54.034Z,67.53
2019-02-02T18:33:01.091Z,67.43
2019-02-02T18:37:06.819Z,64.47
2019-02-02T18:41:12.612Z,66.27
2019-02-02T18:45:23.654Z,65.10
2019-02-02T18:49:29.423Z,62.67
2019-02-02T18:53:36.798Z,68.40
2019-02-02T18:57:42.348Z,66.03
2019-02-02T19:01:49.064Z,63.00
2019-02-02T19:05:54.697Z,65.37
2019-02-02T19:10:01.326Z,70.80
2019-02-02T19:14:07.103Z,66.17
2019-02-02T19:18:16.199Z,61.93
2019-02-02T19:22:22.091Z,57.83
2019-02-02T19:26:28.864Z,60.23
2019-02-02T19:30:34.452Z,57.87
2019-02-02T19:34:40.343Z,60.57
2019-02-02T19:38:45.956Z,60.43
2019-02-02T19:42:54.698Z,55.50
2019-02-02T19:47:01.678Z,52.83
2019-02-02T19:51:07.340Z,57.40
2019-02-02T19:55:14.997Z,45.77
2019-02-02T19:59:28.718Z,52.57
2019-02-02T20:03:34.667Z,52.10
2019-02-02T20:07:40.786Z,55.63
2019-02-02T20:11:46.664Z,56.57
2019-02-02T20:15:52.632Z,54.23
2019-02-02T20:19:58.728Z,52.63
2019-02-02T20:24:04.783Z,55.10
2019-02-02T20:28:10.494Z,55.80
2019-02-02T20:32:16.335Z,62.53
2019-02-02T20:36:22.151Z,57.67
2019-02-02T20:40:28.223Z,57.63
2019-02-02T20:44:33.946Z,62.90
2019-02-02T20:48:40.017Z,63.33
2019-02-02T20:52:47.866Z,59.63
2019-02-02T20:56:53.719Z,64.10
2019-02-02T21:00:59.414Z,67.17
2019-02-02T21:05:05.860Z,67.13
2019-02-02T21:09:11.730Z,70.83
2019-02-02T21:13:17.699Z,62.80
2019-02-02T21:17:24.057Z,66.73
2019-02-02T21:21:29.584Z,64.17
2019-02-02T21:25:35.553Z,66.07
2019-02-02T21:29:41.182Z,68.47
2019-02-02T21:33:47.145Z,67.70
2019-02-02T21:37:52.789Z,72.80
2019-02-02T21:41:58.523Z,67.83
2019-02-02T21:46:04.594Z,69.93
2019-02-02T21:50:15.649Z,68.97
2019-02-02T21:54:21.377Z,60.87
2019-02-02T21:58:26.936Z,66.23
2019-02-02T22:02:32.801Z,61.40
2019-02-02T22:06:38.910Z,64.33
2019-02-02T22:10:44.763Z,56.80
2019-02-02T22:14:52.234Z,61.87
2019-02-02T22:18:58.359Z,55.67
2019-02-02T22:23:03.904Z,54.07
2019-02-02T22:27:09.612Z,53.73
2019-02-02T22:31:15.530Z,51.60
2019-02-02T22:35:21.113Z,54.10
2019-02-02T22:39:26.914Z,50.80
2019-02-02T22:43:34.077Z,53.60
2019-02-02T22:47:39.761Z,50.50
2019-02-02T22:51:45.846Z,48.37
2019-02-02T22:55:51.540Z,49.67
2019-02-02T22:59:57.253Z,46.87
2019-02-02T23:04:32.187Z,54.63
2019-02-02T23:09:18.189Z,47.80
2019-02-02T23:14:03.169Z,48.43
2019-02-02T23:18:08.931Z,53.47
2019-02-02T23:22:14.729Z,50.57
2019-02-02T23:26:20.455Z,55.53
2019-02-02T23:30:26.136Z,52.33
2019-02-02T23:34:32.078Z,54.90
2019-02-02T23:38:37.762Z,52.63
2019-02-02T23:42:43.317Z,53.37
2019-02-02T23:46:49.018Z,48.80
2019-02-02T23:50:55.821Z,44.17
2019-02-02T23:55:06.958Z,38.13
2019-02-02T23:59:12.557Z,35.83
